Time;durP1;ratioP1;P1;durP2;ratioP2;P2;SDS_P1;SDS_P2;PMS_P1;PMS_P2;Temp;Humidity;BMP_temperature;BMP_pressure;BME280_temperature;BME280_humidity;BME280_pressure;Samples;Min_cycle;Max_cycle;Signal;HPM_P1;HPM_P2
2022/07/06 00:00:57;;;;;;;0.00;0.00;;;22.70;61.20;;;;;;4049277;29;20073;-67
2022/07/06 00:03:20;;;;;;;0.13;0.13;;;22.70;61.20;;;;;;4048901;29;20087;-67
2022/07/06 00:05:42;;;;;;;0.00;0.00;;;22.60;60.90;;;;;;4057431;29;20063;-68
2022/07/06 00:08:05;;;;;;;0.00;0.00;;;22.60;61.20;;;;;;4064625;29;20055;-67
2022/07/06 00:10:28;;;;;;;0.00;0.00;;;22.60;61.30;;;;;;4064395;29;20060;-67
2022/07/06 00:12:50;;;;;;;0.00;0.00;;;22.60;61.20;;;;;;4064680;29;20048;-68
2022/07/06 00:15:12;;;;;;;0.00;0.00;;;22.60;61.30;;;;;;4063534;29;20050;-68
2022/07/06 00:17:36;;;;;;;0.00;0.00;;;22.60;61.40;;;;;;4063123;29;20148;-68
2022/07/06 00:19:58;;;;;;;0.00;0.00;;;22.50;61.40;;;;;;4063994;29;20062;-68
2022/07/06 00:22:20;;;;;;;0.00;0.00;;;22.50;61.40;;;;;;4064411;29;20052;-67
2022/07/06 00:24:42;;;;;;;0.00;0.00;;;22.50;61.40;;;;;;4060032;29;20116;-67
2022/07/06 00:27:05;;;;;;;0.00;0.00;;;22.50;61.50;;;;;;4064529;29;20457;-66
2022/07/06 00:29:28;;;;;;;0.55;0.55;;;22.50;61.50;;;;;;4049801;29;20048;-66
2022/07/06 00:31:50;;;;;;;0.00;0.00;;;22.50;61.50;;;;;;4049801;29;20104;-66
2022/07/06 00:34:14;;;;;;;0.00;0.00;;;22.50;61.60;;;;;;4050047;29;20056;-66
2022/07/06 00:36:36;;;;;;;0.00;0.00;;;22.50;61.70;;;;;;4063987;29;20131;-66
2022/07/06 00:38:59;;;;;;;0.00;0.00;;;22.50;61.70;;;;;;4050577;29;20055;-66
2022/07/06 00:41:21;;;;;;;0.08;0.08;;;22.50;61.70;;;;;;4063450;29;20105;-66
2022/07/06 00:43:51;;;;;;;0.00;0.00;;;22.50;61.70;;;;;;4063116;29;20044;-66
2022/07/06 00:46:13;;;;;;;0.00;0.00;;;22.50;61.70;;;;;;4061942;29;20543;-66
2022/07/06 00:48:36;;;;;;;0.00;0.00;;;22.50;61.80;;;;;;4062228;29;20127;-66
2022/07/06 00:50:59;;;;;;;0.00;0.00;;;22.50;62.00;;;;;;4063357;29;20060;-66
2022/07/06 00:53:21;;;;;;;0.00;0.00;;;22.50;61.80;;;;;;4061699;29;20519;-66
2022/07/06 00:55:44;;;;;;;0.00;0.00;;;22.50;62.80;;;;;;4062380;29;20444;-66
2022/07/06 00:58:07;;;;;;;0.00;0.00;;;22.50;61.80;;;;;;4062086;29;20055;-66
2022/07/06 01:00:29;;;;;;;0.00;0.00;;;22.50;61.90;;;;;;4063784;29;20057;-66
2022/07/06 01:02:52;;;;;;;0.00;0.00;;;22.50;61.90;;;;;;4063163;29;20111;-66
2022/07/06 01:05:16;;;;;;;0.00;0.00;;;22.50;61.90;;;;;;4063518;29;20059;-67
2022/07/06 01:07:41;;;;;;;0.00;0.00;;;22.50;62.30;;;;;;4063046;29;20457;-67
2022/07/06 01:10:05;;;;;;;0.00;0.00;;;22.50;61.90;;;;;;4063243;29;20046;-67
2022/07/06 01:12:27;;;;;;;0.00;0.00;;;22.50;61.90;;;;;;4062970;29;20059;-66
2022/07/06 01:14:50;;;;;;;0.00;0.00;;;22.50;61.90;;;;;;4059769;29;20148;-67
2022/07/06 01:17:13;;;;;;;0.00;0.00;;;22.50;62.00;;;;;;4045383;29;20056;-66
2022/07/06 01:19:36;;;;;;;0.05;0.05;;;22.50;62.00;;;;;;4047728;29;20148;-67
2022/07/06 01:21:59;;;;;;;0.00;0.00;;;22.50;62.10;;;;;;4047559;29;20049;-67
2022/07/06 01:24:21;;;;;;;0.00;0.00;;;22.50;62.00;;;;;;4060995;29;20099;-66
2022/07/06 01:26:43;;;;;;;0.00;0.00;;;22.50;62.00;;;;;;4075043;29;20082;-65
2022/07/06 01:29:05;;;;;;;0.00;0.00;;;22.50;62.90;;;;;;4063328;29;20477;-66
2022/07/06 01:31:28;;;;;;;0.00;0.00;;;22.50;62.40;;;;;;4062661;29;20392;-66
2022/07/06 01:33:53;;;;;;;0.00;0.00;;;22.50;62.10;;;;;;4061927;29;20135;-66
2022/07/06 01:36:16;;;;;;;0.00;0.00;;;22.50;62.20;;;;;;4062774;29;20086;-67
2022/07/06 01:38:46;;;;;;;0.00;0.00;;;22.40;63.00;;;;;;4024012;29;1096369;-66
2022/07/06 01:41:08;;;;;;;0.00;0.00;;;22.50;62.10;;;;;;4063046;29;20074;-67
2022/07/06 01:43:30;;;;;;;0.00;0.00;;;22.40;62.00;;;;;;4061351;29;20424;-66
2022/07/06 01:45:52;;;;;;;0.00;0.00;;;22.40;62.10;;;;;;4063047;29;20052;-66
2022/07/06 01:48:14;;;;;;;0.00;0.00;;;22.40;62.10;;;;;;4049022;29;20155;-66
2022/07/06 01:50:38;;;;;;;0.00;0.00;;;22.40;62.10;;;;;;4048665;29;20048;-66
2022/07/06 01:53:00;;;;;;;0.00;0.00;;;22.40;62.10;;;;;;4048677;29;20424;-66
2022/07/06 01:55:25;;;;;;;0.22;0.22;;;22.40;62.20;;;;;;4048182;29;20065;-66
2022/07/06 01:57:47;;;;;;;0.25;0.25;;;22.40;62.20;;;;;;4048960;29;20139;-65
2022/07/06 02:00:11;;;;;;;0.00;0.00;;;22.40;62.20;;;;;;4062689;29;20465;-66
2022/07/06 02:02:40;;;;;;;0.00;0.00;;;22.40;62.50;;;;;;4048309;29;20457;-66
2022/07/06 02:05:06;;;;;;;0.00;0.00;;;22.40;62.50;;;;;;4048293;29;20489;-66
2022/07/06 02:07:28;;;;;;;0.00;0.00;;;22.40;62.40;;;;;;4048471;29;20073;-65
2022/07/06 02:09:50;;;;;;;2.28;1.60;;;22.40;62.40;;;;;;4062715;29;20419;-66
2022/07/06 02:12:14;;;;;;;5.05;1.20;;;22.40;62.40;;;;;;4061659;29;20111;-65
2022/07/06 02:14:36;;;;;;;0.00;0.00;;;22.40;62.30;;;;;;4035344;29;20140;-66
2022/07/06 02:16:58;;;;;;;0.00;0.00;;;22.40;62.30;;;;;;4048005;29;20148;-68
2022/07/06 02:19:20;;;;;;;0.00;0.00;;;22.40;62.40;;;;;;4048361;29;20059;-68
2022/07/06 02:21:42;;;;;;;0.00;0.00;;;22.40;62.40;;;;;;4047994;29;20547;-68
2022/07/06 02:24:07;;;;;;;0.00;0.00;;;22.40;62.40;;;;;;4040673;29;20059;-67
2022/07/06 02:26:29;;;;;;;0.00;0.00;;;22.40;62.40;;;;;;4048321;29;20056;-67
2022/07/06 02:28:53;;;;;;;0.00;0.00;;;22.30;62.40;;;;;;4062042;29;20123;-67
2022/07/06 02:31:16;;;;;;;0.00;0.00;;;22.40;62.40;;;;;;4062256;29;20060;-67
2022/07/06 02:33:41;;;;;;;0.00;0.00;;;22.30;62.30;;;;;;4033195;29;20055;-67
2022/07/06 02:36:04;;;;;;;0.00;0.00;;;22.40;62.40;;;;;;4045720;29;20406;-67
2022/07/06 02:38:26;;;;;;;0.00;0.00;;;22.30;62.30;;;;;;4046300;29;20059;-66
2022/07/06 02:40:49;;;;;;;0.10;0.10;;;22.30;62.30;;;;;;4045860;29;20060;-66
2022/07/06 02:43:11;;;;;;;0.20;0.20;;;22.30;62.40;;;;;;4061229;29;20060;-66
2022/07/06 02:45:37;;;;;;;0.10;0.10;;;22.30;62.40;;;;;;4047812;29;20554;-67
2022/07/06 02:47:59;;;;;;;0.00;0.00;;;22.30;62.50;;;;;;4048451;29;20096;-67
2022/07/06 02:50:22;;;;;;;0.00;0.00;;;22.30;62.50;;;;;;4061933;29;20064;-67
2022/07/06 02:52:44;;;;;;;0.20;0.20;;;22.30;62.50;;;;;;4056696;29;20052;-67
2022/07/06 02:55:07;;;;;;;0.00;0.00;;;22.30;62.90;;;;;;4062000;29;20083;-67
2022/07/06 02:57:29;;;;;;;0.00;0.00;;;22.30;62.50;;;;;;4062652;29;20548;-67
2022/07/06 02:59:51;;;;;;;0.00;0.00;;;22.30;62.50;;;;;;4061479;29;20059;-67
2022/07/06 03:02:15;;;;;;;0.00;0.00;;;22.30;62.50;;;;;;4054652;29;20045;-67
2022/07/06 03:04:38;;;;;;;0.00;0.00;;;22.20;62.40;;;;;;4045869;29;20052;-67
2022/07/06 03:07:01;;;;;;;0.00;0.00;;;22.30;62.50;;;;;;4046190;29;20093;-67
2022/07/06 03:09:24;;;;;;;0.00;0.00;;;22.30;62.50;;;;;;4032325;29;20144;-67
2022/07/06 03:11:46;;;;;;;0.00;0.00;;;22.30;63.40;;;;;;4051928;29;20059;-67
2022/07/06 03:14:09;;;;;;;0.08;0.08;;;22.30;62.50;;;;;;4061222;29;20514;-67
2022/07/06 03:16:34;;;;;;;0.00;0.00;;;22.30;62.50;;;;;;4061483;29;20119;-67
2022/07/06 03:18:58;;;;;;;0.00;0.00;;;22.30;62.50;;;;;;4062372;29;20123;-67
2022/07/06 03:21:21;;;;;;;0.93;0.85;;;22.30;62.50;;;;;;4061082;29;20054;-67
2022/07/06 03:23:44;;;;;;;0.00;0.00;;;22.20;62.40;;;;;;4053903;29;20135;-67
2022/07/06 03:26:06;;;;;;;0.22;0.22;;;22.20;62.40;;;;;;4045850;29;20159;-67
2022/07/06 03:28:29;;;;;;;1.88;0.85;;;22.20;62.40;;;;;;4032330;29;20500;-67
2022/07/06 03:30:52;;;;;;;0.00;0.00;;;22.20;62.50;;;;;;4045292;29;20437;-67
2022/07/06 03:33:14;;;;;;;0.00;0.00;;;22.20;62.40;;;;;;4059851;29;20143;-67
2022/07/06 03:35:38;;;;;;;0.00;0.00;;;22.20;63.30;;;;;;4061434;29;20127;-67
2022/07/06 03:38:02;;;;;;;0.00;0.00;;;22.20;63.30;;;;;;4047631;29;20059;-65
2022/07/06 03:40:25;;;;;;;0.00;0.00;;;22.20;62.50;;;;;;4059284;29;20455;-65
2022/07/06 03:42:48;;;;;;;0.00;0.00;;;22.10;62.40;;;;;;4077183;29;20062;-65
2022/07/06 03:45:11;;;;;;;0.00;0.00;;;22.20;62.50;;;;;;4077294;29;20434;-65
2022/07/06 03:47:35;;;;;;;0.00;0.00;;;22.20;62.40;;;;;;4077167;29;20051;-65
2022/07/06 03:49:58;;;;;;;0.00;0.00;;;22.20;62.40;;;;;;4076905;29;20507;-64
2022/07/06 03:52:21;;;;;;;0.00;0.00;;;22.20;62.40;;;;;;4075626;29;20134;-65
2022/07/06 03:54:49;;;;;;;0.00;0.00;;;22.10;62.30;;;;;;4077488;29;20175;-65
2022/07/06 03:57:16;;;;;;;0.00;0.00;;;22.10;62.40;;;;;;4076953;29;20095;-65
2022/07/06 03:59:38;;;;;;;0.00;0.00;;;22.10;62.30;;;;;;4064957;29;20052;-65
2022/07/06 04:02:01;;;;;;;0.00;0.00;;;22.10;62.30;;;;;;4077194;29;20546;-65
2022/07/06 04:04:23;;;;;;;1.48;1.38;;;22.10;62.30;;;;;;4077063;29;20108;-65
2022/07/06 04:06:46;;;;;;;0.00;0.00;;;22.10;62.40;;;;;;4064954;29;20058;-65
2022/07/06 04:09:10;;;;;;;0.00;0.00;;;22.10;62.40;;;;;;4076916;29;20099;-65
2022/07/06 04:11:34;;;;;;;0.00;0.00;;;22.10;62.40;;;;;;4075337;29;20058;-65
2022/07/06 04:13:58;;;;;;;0.00;0.00;;;22.10;62.40;;;;;;4063198;29;20130;-65
2022/07/06 04:16:20;;;;;;;0.00;0.00;;;22.10;62.40;;;;;;4063037;29;20059;-65
2022/07/06 04:18:43;;;;;;;0.00;0.00;;;22.10;62.40;;;;;;4064685;29;20063;-64
2022/07/06 04:21:06;;;;;;;0.00;0.00;;;22.10;63.30;;;;;;4062612;29;20099;-67
2022/07/06 04:23:30;;;;;;;0.00;0.00;;;22.10;62.50;;;;;;4063284;29;20055;-65
2022/07/06 04:25:54;;;;;;;0.00;0.00;;;22.10;62.90;;;;;;4063147;29;20527;-63
2022/07/06 04:28:18;;;;;;;0.00;0.00;;;22.10;62.80;;;;;;4063642;29;20048;-63
2022/07/06 04:30:40;;;;;;;0.20;0.20;;;22.10;62.70;;;;;;4060952;29;20052;-64
2022/07/06 04:33:06;;;;;;;0.00;0.00;;;22.10;62.50;;;;;;4074642;29;20043;-64
2022/07/06 04:35:30;;;;;;;0.00;0.00;;;22.10;62.40;;;;;;4066319;29;20158;-64
2022/07/06 04:37:52;;;;;;;0.00;0.00;;;22.10;62.40;;;;;;4092354;29;20131;-64
2022/07/06 04:40:16;;;;;;;0.00;0.00;;;22.10;62.40;;;;;;4056731;29;20508;-65
2022/07/06 04:42:42;;;;;;;0.00;0.00;;;22.10;62.40;;;;;;4061003;29;20083;-65
2022/07/06 04:45:06;;;;;;;0.77;0.35;;;22.10;62.40;;;;;;4046759;29;20404;-64
2022/07/06 04:47:28;;;;;;;0.00;0.00;;;22.10;62.40;;;;;;4068427;29;20563;-64
2022/07/06 04:49:50;;;;;;;0.00;0.00;;;22.10;62.50;;;;;;4060971;29;20476;-65
2022/07/06 04:52:12;;;;;;;0.00;0.00;;;22.10;62.50;;;;;;4046570;29;20048;-64
2022/07/06 04:54:35;;;;;;;0.00;0.00;;;22.10;62.60;;;;;;4048769;29;20080;-64
2022/07/06 04:56:57;;;;;;;0.00;0.00;;;22.10;62.60;;;;;;4047325;29;20100;-64
2022/07/06 04:59:21;;;;;;;0.00;0.00;;;22.00;62.70;;;;;;4047109;29;20104;-64
2022/07/06 05:01:43;;;;;;;0.00;0.00;;;22.00;62.50;;;;;;4062087;29;20060;-64
2022/07/06 05:04:05;;;;;;;0.00;0.00;;;22.00;62.50;;;;;;4062713;29;20056;-62
2022/07/06 05:06:27;;;;;;;0.00;0.00;;;22.00;62.60;;;;;;4077812;29;20134;-65
2022/07/06 05:08:50;;;;;;;0.00;0.00;;;22.00;62.50;;;;;;4078091;29;20056;-64
2022/07/06 05:11:13;;;;;;;0.00;0.00;;;22.00;62.50;;;;;;4074149;29;20475;-64
2022/07/06 05:13:36;;;;;;;0.00;0.00;;;22.00;62.60;;;;;;4063738;29;20118;-64
2022/07/06 05:15:59;;;;;;;0.00;0.00;;;22.00;62.60;;;;;;4075659;29;20091;-64
2022/07/06 05:18:21;;;;;;;0.00;0.00;;;22.00;62.60;;;;;;4063774;29;20051;-64
2022/07/06 05:20:44;;;;;;;0.00;0.00;;;22.00;62.50;;;;;;4058743;29;20511;-64
2022/07/06 05:23:07;;;;;;;0.00;0.00;;;21.90;62.50;;;;;;4075485;29;20380;-65
2022/07/06 05:25:29;;;;;;;0.00;0.00;;;21.90;62.60;;;;;;4075097;29;20415;-66
2022/07/06 05:27:52;;;;;;;0.00;0.00;;;21.90;62.70;;;;;;4061780;29;20040;-65
2022/07/06 05:30:15;;;;;;;2.13;0.65;;;21.90;62.70;;;;;;4061481;29;20135;-65
2022/07/06 05:32:39;;;;;;;0.00;0.00;;;21.90;62.70;;;;;;4061564;29;20048;-66
2022/07/06 05:35:02;;;;;;;0.00;0.00;;;21.90;62.70;;;;;;4064051;29;20048;-65
2022/07/06 05:37:45;;;;;;;0.00;0.00;;;21.90;62.70;;;;;;4062155;29;20123;-65
2022/07/06 05:40:08;;;;;;;0.28;0.28;;;21.90;62.60;;;;;;4066455;29;20143;-66
2022/07/06 05:42:31;;;;;;;0.00;0.00;;;21.90;62.50;;;;;;4047736;29;20076;-66
2022/07/06 05:44:56;;;;;;;0.00;0.00;;;21.90;62.40;;;;;;4060621;29;20464;-66
2022/07/06 05:50:14;;;;;;;0.00;0.00;;;21.90;62.20;;;;;;4054961;29;20092;-66
2022/07/06 05:52:58;;;;;;;0.40;0.40;;;21.90;62.10;;;;;;4059815;29;20124;-65
2022/07/06 05:55:22;;;;;;;0.00;0.00;;;21.90;62.00;;;;;;4062043;29;20060;-66
2022/07/06 05:57:44;;;;;;;0.00;0.00;;;21.90;61.80;;;;;;4061411;29;20559;-65
2022/07/06 06:00:08;;;;;;;0.00;0.00;;;21.90;61.70;;;;;;4075229;29;20201;-66
2022/07/06 06:02:38;;;;;;;0.40;0.40;;;21.90;61.60;;;;;;4063006;29;20135;-65
2022/07/06 06:05:03;;;;;;;0.00;0.00;;;21.90;61.60;;;;;;4075068;29;20058;-66
2022/07/06 06:07:25;;;;;;;0.00;0.00;;;21.90;61.60;;;;;;4062011;29;20142;-66
2022/07/06 06:09:48;;;;;;;0.00;0.00;;;21.90;61.50;;;;;;4063106;29;20090;-66
2022/07/06 06:12:10;;;;;;;0.00;0.00;;;21.90;61.20;;;;;;4074668;29;20107;-66
2022/07/06 06:14:32;;;;;;;0.00;0.00;;;21.90;61.10;;;;;;4063093;29;20472;-66
2022/07/06 06:16:54;;;;;;;0.00;0.00;;;21.90;60.70;;;;;;4061929;29;20520;-65
2022/07/06 06:19:17;;;;;;;0.00;0.00;;;21.90;60.30;;;;;;4061395;29;20048;-66
2022/07/06 06:21:40;;;;;;;0.00;0.00;;;21.90;60.20;;;;;;4063050;29;20066;-65
2022/07/06 06:24:02;;;;;;;0.00;0.00;;;21.90;59.90;;;;;;4062031;29;20058;-65
2022/07/06 06:26:24;;;;;;;0.00;0.00;;;21.90;59.70;;;;;;4060889;29;20478;-65
2022/07/06 06:28:46;;;;;;;0.00;0.00;;;21.90;59.80;;;;;;4060389;29;20127;-65
2022/07/06 06:31:08;;;;;;;0.10;0.10;;;21.90;59.80;;;;;;4060856;29;20456;-65
2022/07/06 06:33:30;;;;;;;0.00;0.00;;;21.90;59.80;;;;;;4060116;29;20401;-65
2022/07/06 06:35:53;;;;;;;0.00;0.00;;;21.90;59.80;;;;;;4060931;29;20131;-65
2022/07/06 06:38:18;;;;;;;0.00;0.00;;;21.90;59.80;;;;;;4059827;29;20052;-65
2022/07/06 06:40:41;;;;;;;1.08;0.65;;;21.90;59.80;;;;;;4045271;29;20056;-64
2022/07/06 06:43:04;;;;;;;0.00;0.00;;;21.90;59.80;;;;;;4044812;29;20044;-65
2022/07/06 06:45:28;;;;;;;0.00;0.00;;;21.90;59.80;;;;;;4058267;29;20122;-65
2022/07/06 06:47:50;;;;;;;0.00;0.00;;;21.90;59.80;;;;;;4059907;29;20056;-65
2022/07/06 06:50:12;;;;;;;0.00;0.00;;;21.90;59.80;;;;;;4060253;29;20056;-65
2022/07/06 06:52:34;;;;;;;0.00;0.00;;;21.90;59.80;;;;;;4058934;29;20151;-65
2022/07/06 06:55:02;;;;;;;0.00;0.00;;;21.90;59.70;;;;;;4072185;29;20080;-65
2022/07/06 06:57:24;;;;;;;0.00;0.00;;;21.90;59.70;;;;;;4071461;29;20225;-65
2022/07/06 06:59:46;;;;;;;0.00;0.00;;;21.90;59.70;;;;;;4060326;29;20387;-66
2022/07/06 07:02:08;;;;;;;0.00;0.00;;;21.90;59.70;;;;;;4060755;29;20087;-65
2022/07/06 07:04:31;;;;;;;0.00;0.00;;;21.80;59.60;;;;;;4060405;29;20199;-66
2022/07/06 07:06:53;;;;;;;0.00;0.00;;;21.80;59.60;;;;;;4060179;29;20056;-66
2022/07/06 07:09:15;;;;;;;0.00;0.00;;;21.90;60.40;;;;;;4060308;29;20062;-66
2022/07/06 07:11:38;;;;;;;0.00;0.00;;;21.90;59.60;;;;;;4060315;29;20583;-66
2022/07/06 07:14:01;;;;;;;0.25;0.25;;;22.00;59.50;;;;;;4060354;29;20160;-66
2022/07/06 07:16:24;;;;;;;0.10;0.10;;;22.10;59.30;;;;;;4062186;29;20575;-66
2022/07/06 07:18:46;;;;;;;0.00;0.00;;;22.20;59.80;;;;;;4063148;29;20143;-66
2022/07/06 07:21:08;;;;;;;0.00;0.00;;;22.30;58.90;;;;;;4062992;29;20460;-66
2022/07/06 07:23:30;;;;;;;0.00;0.00;;;22.30;59.40;;;;;;4063284;29;20058;-65
2022/07/06 07:25:52;;;;;;;0.00;0.00;;;22.30;58.40;;;;;;4062507;29;20393;-65
2022/07/06 07:28:16;;;;;;;0.00;0.00;;;22.40;58.30;;;;;;4062885;29;20071;-65
2022/07/06 07:30:37;;;;;;;0.00;0.00;;;22.50;58.10;;;;;;4062510;29;20115;-65
2022/07/06 07:33:01;;;;;;;0.00;0.00;;;22.50;58.80;;;;;;4063182;29;20154;-65
2022/07/06 07:35:23;;;;;;;0.00;0.00;;;22.50;58.00;;;;;;4062691;29;20134;-65
2022/07/06 07:37:45;;;;;;;0.00;0.00;;;22.50;57.60;;;;;;4063341;29;20460;-65
2022/07/06 07:40:07;;;;;;;0.00;0.00;;;22.60;57.80;;;;;;4061963;29;20115;-65
2022/07/06 07:42:29;;;;;;;0.98;0.75;;;22.60;57.60;;;;;;4062336;29;20059;-65
2022/07/06 07:44:53;;;;;;;0.00;0.00;;;22.60;57.20;;;;;;4061625;29;20186;-66
2022/07/06 07:47:15;;;;;;;0.00;0.00;;;22.60;57.10;;;;;;4062474;29;20102;-65
2022/07/06 07:49:37;;;;;;;0.00;0.00;;;22.60;56.90;;;;;;4061363;29;20070;-66
2022/07/06 07:52:00;;;;;;;0.00;0.00;;;22.50;57.00;;;;;;4047988;29;20065;-65
2022/07/06 07:54:21;;;;;;;0.85;0.85;;;22.50;57.10;;;;;;4061134;29;20500;-66
2022/07/06 07:56:43;;;;;;;0.00;0.00;;;22.50;57.30;;;;;;4062097;29;20066;-65
2022/07/06 07:59:05;;;;;;;0.00;0.00;;;22.50;57.20;;;;;;4047619;29;20049;-64
2022/07/06 08:01:29;;;;;;;0.00;0.00;;;22.50;57.50;;;;;;4047400;29;20638;-64
2022/07/06 08:03:52;;;;;;;0.00;0.00;;;22.50;57.50;;;;;;4061116;29;20044;-64
2022/07/06 08:06:14;;;;;;;0.00;0.00;;;22.50;57.50;;;;;;4061523;29;20521;-65
2022/07/06 08:08:36;;;;;;;0.00;0.00;;;22.50;58.30;;;;;;4061919;29;20052;-65
2022/07/06 08:10:58;;;;;;;0.00;0.00;;;22.50;57.30;;;;;;4061553;29;20052;-65
2022/07/06 08:13:38;;;;;;;0.00;0.00;;;22.50;57.10;;;;;;4060989;29;20052;-64
2022/07/06 08:16:00;;;;;;;0.10;0.10;;;22.50;57.00;;;;;;4062191;29;20059;-64
2022/07/06 08:18:24;;;;;;;0.00;0.00;;;22.50;57.00;;;;;;4062052;29;20111;-65
2022/07/06 08:20:46;;;;;;;0.47;0.47;;;22.50;56.80;;;;;;4061678;29;20515;-65
2022/07/06 08:23:28;;;;;;;0.52;0.43;;;22.50;56.60;;;;;;4061205;29;20048;-65
2022/07/06 08:25:50;;;;;;;0.00;0.00;;;22.50;56.60;;;;;;4061800;29;20070;-64
2022/07/06 08:28:12;;;;;;;0.00;0.00;;;22.50;56.70;;;;;;4062381;29;20412;-65
2022/07/06 08:30:35;;;;;;;0.00;0.00;;;22.50;56.60;;;;;;4062458;29;20079;-64
2022/07/06 08:32:57;;;;;;;0.00;0.00;;;22.50;56.40;;;;;;4061135;29;20146;-65
2022/07/06 08:35:30;;;;;;;0.00;0.00;;;22.60;56.30;;;;;;4061709;29;20408;-65
2022/07/06 08:37:53;;;;;;;0.00;0.00;;;22.60;56.50;;;;;;4061999;29;20572;-64
2022/07/06 08:40:15;;;;;;;0.00;0.00;;;22.60;56.40;;;;;;4059929;29;20097;-64
2022/07/06 08:42:37;;;;;;;0.00;0.00;;;22.60;56.30;;;;;;4061583;29;20044;-64
2022/07/06 08:45:00;;;;;;;0.03;0.03;;;22.60;55.90;;;;;;4061247;29;20111;-64
2022/07/06 08:47:23;;;;;;;0.00;0.00;;;22.60;56.50;;;;;;4061848;29;20048;-64
2022/07/06 08:49:46;;;;;;;0.00;0.00;;;22.60;56.20;;;;;;4044150;29;20057;-64
2022/07/06 08:52:09;;;;;;;0.00;0.00;;;22.60;55.90;;;;;;4061858;29;20067;-64
2022/07/06 08:54:31;;;;;;;0.00;0.00;;;22.70;55.70;;;;;;4061055;29;20055;-64
2022/07/06 08:56:54;;;;;;;0.00;0.00;;;22.60;55.40;;;;;;4061418;29;20048;-64
2022/07/06 08:59:17;;;;;;;0.00;0.00;;;22.60;55.50;;;;;;4061063;29;20169;-65
2022/07/06 09:01:40;;;;;;;0.00;0.00;;;22.70;55.40;;;;;;4061596;29;20078;-65
2022/07/06 09:04:05;;;;;;;0.00;0.00;;;22.70;55.60;;;;;;4060674;29;20147;-64
2022/07/06 09:06:29;;;;;;;0.00;0.00;;;22.70;55.50;;;;;;4061392;29;20091;-64
2022/07/06 09:08:55;;;;;;;0.00;0.00;;;22.70;55.40;;;;;;4061627;29;20068;-64
2022/07/06 09:11:17;;;;;;;0.00;0.00;;;22.70;54.90;;;;;;4061005;29;20500;-64
2022/07/06 09:13:38;;;;;;;1.58;0.40;;;22.80;55.40;;;;;;4060921;29;20521;-64
2022/07/06 09:16:11;;;;;;;0.00;0.00;;;22.80;55.50;;;;;;4061005;29;20143;-65
2022/07/06 09:18:53;;;;;;;0.00;0.00;;;22.80;55.20;;;;;;4061011;29;20048;-64
2022/07/06 09:21:24;;;;;;;0.00;0.00;;;22.80;54.90;;;;;;4060487;29;20139;-65
2022/07/06 09:23:46;;;;;;;0.00;0.00;;;22.80;55.00;;;;;;4060331;29;20060;-65
2022/07/06 09:26:09;;;;;;;0.00;0.00;;;22.90;55.00;;;;;;4060899;29;20063;-65
2022/07/06 09:28:42;;;;;;;0.00;0.00;;;22.90;54.70;;;;;;4060482;29;20044;-65
2022/07/06 09:31:09;;;;;;;0.00;0.00;;;22.90;54.00;;;;;;4060474;29;20476;-65
2022/07/06 09:34:10;;;;;;;0.00;0.00;;;22.90;54.70;;;;;;4059742;29;20056;-65
2022/07/06 09:36:41;;;;;;;0.00;0.00;;;22.90;55.00;;;;;;4059009;29;20135;-65
2022/07/06 09:39:20;;;;;;;0.00;0.00;;;23.00;55.80;;;;;;4060799;29;20067;-64
2022/07/06 09:41:43;;;;;;;0.03;0.03;;;23.00;55.50;;;;;;4060535;29;20052;-63
2022/07/06 09:44:05;;;;;;;0.40;0.40;;;23.00;55.40;;;;;;4060660;29;20063;-65
2022/07/06 09:46:27;;;;;;;1.55;1.40;;;23.00;55.00;;;;;;4060905;29;20078;-64
2022/07/06 09:48:49;;;;;;;0.00;0.00;;;23.00;55.00;;;;;;4060535;29;20139;-63
2022/07/06 09:51:16;;;;;;;0.00;0.00;;;23.10;55.10;;;;;;4059491;29;20478;-63
2022/07/06 09:53:41;;;;;;;0.80;0.80;;;23.10;54.90;;;;;;4060139;29;20526;-64
2022/07/06 09:56:04;;;;;;;0.00;0.00;;;23.10;55.00;;;;;;4060483;29;20066;-63
2022/07/06 09:58:29;;;;;;;0.00;0.00;;;23.10;55.00;;;;;;4060204;29;20415;-64
2022/07/06 10:01:11;;;;;;;0.00;0.00;;;23.10;54.70;;;;;;4036188;29;20089;-64
2022/07/06 10:03:34;;;;;;;0.00;0.00;;;23.10;54.60;;;;;;4046637;29;20056;-65
2022/07/06 10:05:57;;;;;;;0.00;0.00;;;23.10;54.70;;;;;;4059444;29;20381;-65
2022/07/06 10:08:19;;;;;;;0.00;0.00;;;23.10;54.60;;;;;;4060173;29;20104;-65
2022/07/06 10:10:42;;;;;;;0.00;0.00;;;23.10;54.60;;;;;;4059886;29;20116;-66
2022/07/06 10:13:06;;;;;;;0.00;0.00;;;23.10;54.60;;;;;;4060718;29;20040;-65
2022/07/06 10:15:32;;;;;;;0.00;0.00;;;23.10;54.50;;;;;;4059908;29;20420;-65
2022/07/06 10:17:55;;;;;;;0.00;0.00;;;23.10;54.80;;;;;;4060371;29;20059;-65
2022/07/06 10:20:17;;;;;;;0.00;0.00;;;23.10;55.00;;;;;;4059789;29;20135;-65
2022/07/06 10:22:41;;;;;;;0.38;0.38;;;23.00;55.10;;;;;;4060437;29;20072;-63
2022/07/06 10:25:05;;;;;;;0.00;0.00;;;23.00;55.40;;;;;;4060052;29;20056;-63
2022/07/06 10:27:27;;;;;;;0.15;0.15;;;23.10;55.70;;;;;;4060320;29;20147;-63
2022/07/06 10:29:49;;;;;;;0.00;0.00;;;23.10;55.40;;;;;;4060248;29;20595;-63
2022/07/06 10:32:13;;;;;;;0.00;0.00;;;23.10;55.10;;;;;;4059380;29;20052;-65
2022/07/06 10:34:36;;;;;;;0.00;0.00;;;23.10;55.50;;;;;;4060230;29;20052;-65
2022/07/06 10:36:58;;;;;;;0.00;0.00;;;23.10;55.30;;;;;;4060235;29;20072;-65
2022/07/06 10:42:46;;;;;;;0.00;0.00;;;23.20;55.40;;;;;;4059896;29;20563;-65
2022/07/06 10:45:11;;;;;;;0.00;0.00;;;23.20;55.30;;;;;;4059538;29;20155;-65
2022/07/06 10:47:35;;;;;;;0.00;0.00;;;23.20;55.00;;;;;;4058683;29;20130;-65
2022/07/06 10:50:01;;;;;;;0.00;0.00;;;23.20;54.90;;;;;;4059403;29;20151;-65
2022/07/06 10:52:23;;;;;;;0.00;0.00;;;23.20;55.00;;;;;;4063303;29;20048;-64
2022/07/06 10:54:47;;;;;;;0.00;0.00;;;23.20;55.00;;;;;;4063180;29;20484;-65
2022/07/06 10:57:11;;;;;;;0.00;0.00;;;23.20;54.80;;;;;;4063232;29;20052;-65
2022/07/06 10:59:32;;;;;;;0.00;0.00;;;23.20;54.90;;;;;;4062892;29;20066;-65
2022/07/06 11:02:13;;;;;;;0.00;0.00;;;23.20;55.00;;;;;;4063154;29;20103;-64
2022/07/06 11:04:38;;;;;;;0.00;0.00;;;23.30;54.80;;;;;;4062723;29;20107;-63
2022/07/06 11:07:09;;;;;;;0.00;0.00;;;23.30;54.50;;;;;;4062099;29;20622;-65
2022/07/06 11:09:33;;;;;;;0.00;0.00;;;23.30;54.20;;;;;;4062577;29;20223;-65
2022/07/06 11:11:57;;;;;;;0.20;0.20;;;23.30;54.00;;;;;;4048598;29;20056;-65
2022/07/06 11:14:23;;;;;;;0.00;0.00;;;23.30;53.70;;;;;;4062626;29;20144;-65
2022/07/06 11:17:02;;;;;;;0.00;0.00;;;23.30;53.50;;;;;;4063033;29;20134;-65
2022/07/06 11:19:25;;;;;;;0.00;0.00;;;23.40;53.40;;;;;;4048871;29;20064;-65
2022/07/06 11:21:51;;;;;;;0.00;0.00;;;23.40;53.30;;;;;;4062561;29;20052;-65
2022/07/06 11:24:14;;;;;;;0.00;0.00;;;23.40;53.20;;;;;;4063074;29;20580;-65
2022/07/06 11:26:37;;;;;;;0.00;0.00;;;23.40;53.20;;;;;;4062451;29;20111;-65
2022/07/06 11:29:01;;;;;;;0.00;0.00;;;23.40;52.90;;;;;;4063171;29;20055;-65
2022/07/06 11:31:24;;;;;;;0.00;0.00;;;23.40;52.80;;;;;;4048175;29;20110;-65
2022/07/06 11:33:47;;;;;;;0.00;0.00;;;23.40;52.80;;;;;;4061908;29;20044;-65
2022/07/06 11:36:14;;;;;;;0.00;0.00;;;23.40;52.90;;;;;;4062365;29;20084;-63
2022/07/06 11:38:38;;;;;;;0.00;0.00;;;23.40;53.10;;;;;;4047911;29;20048;-65
2022/07/06 11:41:00;;;;;;;0.00;0.00;;;23.40;53.10;;;;;;4062728;29;20048;-65
2022/07/06 11:43:22;;;;;;;0.30;0.30;;;23.40;53.10;;;;;;4034045;29;20487;-65
2022/07/06 11:45:44;;;;;;;0.00;0.00;;;23.40;53.10;;;;;;4062771;29;20069;-61
2022/07/06 11:48:14;;;;;;;0.85;0.85;;;23.40;53.10;;;;;;4062033;29;20489;-64
2022/07/06 11:50:36;;;;;;;0.00;0.00;;;23.40;53.10;;;;;;4062186;29;20142;-65
2022/07/06 11:52:58;;;;;;;0.20;0.20;;;23.40;53.00;;;;;;4062124;29;20499;-63
2022/07/06 11:55:21;;;;;;;0.00;0.00;;;23.40;53.00;;;;;;4061363;29;20409;-64
2022/07/06 11:57:44;;;;;;;0.00;0.00;;;23.40;52.80;;;;;;4034870;29;20068;-63
2022/07/06 12:00:07;;;;;;;0.00;0.00;;;23.50;52.80;;;;;;4061901;29;20060;-64
2022/07/06 12:02:35;;;;;;;28.15;2.90;;;23.50;52.60;;;;;;4061663;29;20138;-63
2022/07/06 12:04:58;;;;;;;9.63;1.65;;;23.50;52.40;;;;;;4061157;29;20060;-63
2022/07/06 12:07:20;;;;;;;0.00;0.00;;;23.50;52.10;;;;;;4062335;29;20078;-63
2022/07/06 12:09:44;;;;;;;0.00;0.00;;;23.50;52.00;;;;;;4061989;29;20108;-64
2022/07/06 12:12:10;;;;;;;0.00;0.00;;;23.50;52.00;;;;;;4061582;29;20127;-63
2022/07/06 12:14:37;;;;;;;0.00;0.00;;;23.50;52.10;;;;;;4052254;29;21381;-63
2022/07/06 12:17:04;;;;;;;0.00;0.00;;;23.50;52.10;;;;;;4051505;29;20060;-63
2022/07/06 12:19:27;;;;;;;0.00;0.00;;;23.60;52.00;;;;;;4061932;29;20078;-64
2022/07/06 12:21:50;;;;;;;0.00;0.00;;;23.60;52.00;;;;;;4060927;29;20134;-64
2022/07/06 12:24:18;;;;;;;0.30;0.30;;;23.60;51.70;;;;;;4061979;29;20135;-63
2022/07/06 12:26:41;;;;;;;0.00;0.00;;;23.60;51.60;;;;;;4053301;29;20055;-63
2022/07/06 12:29:08;;;;;;;0.25;0.25;;;23.50;51.50;;;;;;4061533;29;20047;-64
2022/07/06 12:31:35;;;;;;;0.00;0.00;;;23.50;51.50;;;;;;4061333;29;20411;-64
2022/07/06 12:33:58;;;;;;;0.00;0.00;;;23.60;51.50;;;;;;4060949;29;20064;-64